Time;durP1;ratioP1;P1;durP2;ratioP2;P2;SDS_P1;SDS_P2;PMS_P1;PMS_P2;Temp;Humidity;BMP_temperature;BMP_pressure;BME280_temperature;BME280_humidity;BME280_pressure;Samples;Min_cycle;Max_cycle;Signal;HPM_P1;HPM_P2
2022/01/13 00:05:09;;;;;;;43.50;25.50;;;;;;;-1.42;85.22;101080.45;430732;1271;142295;-68
2022/01/13 00:15:25;;;;;;;45.20;22.70;;;;;;;-1.40;85.23;101103.46;433291;1271;141696;-67
2022/01/13 00:25:34;;;;;;;43.60;21.90;;;;;;;-1.39;85.22;101106.23;430988;1271;141020;-66
2022/01/13 00:35:40;;;;;;;37.10;19.80;;;;;;;-1.33;85.19;101123.47;430432;1271;140689;-67
2022/01/13 00:45:47;;;;;;;33.50;18.60;;;;;;;-1.27;85.11;101093.63;429682;1271;142221;-67
2022/01/13 00:55:59;;;;;;;35.40;18.80;;;;;;;-1.26;85.06;101088.65;431604;1272;142374;-67
2022/01/13 01:06:06;;;;;;;27.70;16.30;;;;;;;-1.22;85.04;101042.98;431052;1270;142166;-71
2022/01/13 01:16:12;;;;;;;27.20;16.40;;;;;;;-1.24;84.88;101044.52;430186;1273;142369;-69
2022/01/13 01:26:26;;;;;;;24.80;14.60;;;;;;;-1.14;85.12;101078.45;431313;1271;146647;-68
2022/01/13 01:36:32;;;;;;;26.10;14.10;;;;;;;-1.10;84.92;101082.26;431684;1273;142114;-68
2022/01/13 01:46:42;;;;;;;30.40;17.80;;;;;;;-1.10;84.45;101059.75;430309;1271;144779;-68
2022/01/13 01:56:48;;;;;;;28.30;13.30;;;;;;;-1.17;84.57;101044.91;431374;1273;141947;-68
2022/01/13 02:06:56;;;;;;;25.30;15.30;;;;;;;-1.15;84.68;101049.05;430233;1273;142181;-67
2022/01/13 02:17:06;;;;;;;27.00;15.20;;;;;;;-1.10;84.69;101063.70;432593;1271;142910;-68
2022/01/13 02:27:12;;;;;;;26.30;15.50;;;;;;;-1.10;84.43;101036.54;430737;1273;143064;-67
2022/01/13 02:37:18;;;;;;;18.70;11.00;;;;;;;-1.08;84.56;101011.28;431419;1271;141912;-69
2022/01/13 02:47:37;;;;;;;25.90;14.80;;;;;;;-1.09;84.58;101010.77;431251;1271;142936;-68
2022/01/13 02:57:45;;;;;;;20.20;14.30;;;;;;;-1.11;84.63;101009.21;430021;1271;142574;-72
2022/01/13 03:07:52;;;;;;;26.90;15.00;;;;;;;-1.12;84.79;101004.05;430977;1271;142361;-68
2022/01/13 03:17:58;;;;;;;24.40;15.00;;;;;;;-1.19;84.73;100989.73;431367;1271;142488;-67
2022/01/13 03:28:07;;;;;;;21.10;15.60;;;;;;;-1.18;85.20;100990.60;430509;1271;143389;-68
2022/01/13 03:38:13;;;;;;;29.20;18.60;;;;;;;-1.18;85.20;100985.80;430427;1271;142218;-68
2022/01/13 03:48:19;;;;;;;27.40;16.80;;;;;;;-1.23;85.35;100971.48;430490;1271;162448;-66
2022/01/13 03:58:59;;;;;;;26.20;16.70;;;;;;;-1.19;85.52;100973.93;430809;1273;141859;-67
2022/01/13 04:09:08;;;;;;;26.60;17.00;;;;;;;-1.15;85.75;100967.06;431080;1271;141520;-69
2022/01/13 04:19:14;;;;;;;28.20;18.60;;;;;;;-1.09;85.58;100971.58;429826;1271;141978;-68
2022/01/13 04:29:29;;;;;;;28.70;17.30;;;;;;;-1.14;85.85;100946.11;430389;1273;142713;-67
2022/01/13 04:39:35;;;;;;;26.50;16.80;;;;;;;-1.16;86.18;100935.62;431092;1271;142599;-67
2022/01/13 04:49:41;;;;;;;32.10;20.60;;;;;;;-1.18;86.22;100922.02;431860;1271;145119;-68
2022/01/13 04:59:48;;;;;;;34.20;19.60;;;;;;;-1.24;86.55;100905.50;430292;1271;141750;-68
2022/01/13 05:09:55;;;;;;;28.80;19.00;;;;;;;-1.22;86.83;100919.25;429005;1273;143658;-68
2022/01/13 05:20:13;;;;;;;19.50;13.20;;;;;;;-1.18;86.97;100916.53;430052;1271;142473;-67
2022/01/13 05:30:20;;;;;;;21.70;14.60;;;;;;;-1.15;87.26;100897.82;429404;1271;143562;-66
2022/01/13 05:40:24;;;;;;;;;;;;;;;-1.08;87.38;100907.14;431459;1271;141884;-68
2022/01/13 05:50:31;;;;;;;19.10;13.50;;;;;;;-1.09;87.48;100900.24;432644;1271;128094;-67
2022/01/13 06:00:36;;;;;;;;;;;;;;;-1.13;87.63;100890.62;430933;1269;143591;-68
2022/01/13 06:10:46;;;;;;;15.00;11.30;;;;;;;-1.18;87.59;100881.46;433593;1271;127716;-67
2022/01/13 06:20:51;;;;;;;18.10;10.90;;;;;;;-1.20;87.67;100897.45;432057;1271;142373;-69
2022/01/13 06:30:57;;;;;;;17.00;13.50;;;;;;;-1.18;87.81;100878.55;429608;1271;143509;-67
2022/01/13 06:41:03;;;;;;;16.20;11.60;;;;;;;-1.18;88.30;100857.42;430268;1271;142304;-68
2022/01/13 06:51:09;;;;;;;17.00;11.90;;;;;;;-1.17;88.09;100832.50;430235;1271;142593;-69
2022/01/13 07:01:15;;;;;;;15.70;11.50;;;;;;;-1.17;88.51;100815.14;434641;1271;144971;-69
2022/01/13 07:11:21;;;;;;;17.10;11.60;;;;;;;-1.13;88.59;100794.55;430315;1271;142912;-67
2022/01/13 07:21:27;;;;;;;16.00;13.40;;;;;;;-1.09;88.77;100796.45;429940;1271;142897;-67
2022/01/13 07:31:33;;;;;;;17.80;12.20;;;;;;;-1.04;89.14;100806.95;430901;1271;142274;-67
2022/01/13 07:41:39;;;;;;;15.00;10.50;;;;;;;-0.98;89.24;100823.30;430504;1271;142641;-65
2022/01/13 07:51:45;;;;;;;12.90;10.20;;;;;;;-0.90;89.26;100815.41;434586;1271;144204;-67
2022/01/13 08:01:51;;;;;;;20.20;11.20;;;;;;;-0.81;89.31;100802.19;430205;1271;142140;-65
2022/01/13 08:11:57;;;;;;;16.20;10.30;;;;;;;-0.69;89.16;100801.02;429881;1271;142541;-61
2022/01/13 08:22:03;;;;;;;19.90;13.00;;;;;;;-0.67;89.44;100807.89;429878;1271;142447;-65
2022/01/13 08:32:10;;;;;;;17.20;11.50;;;;;;;-0.63;89.43;100795.36;430120;1271;143898;-64
2022/01/13 08:42:16;;;;;;;19.90;12.20;;;;;;;-0.55;89.68;100782.30;437981;1271;143346;-66
2022/01/13 08:52:23;;;;;;;25.80;16.70;;;;;;;-0.38;89.86;100786.26;431017;1271;141363;-66
2022/01/13 09:02:33;;;;;;;27.20;16.90;;;;;;;-0.22;89.87;100780.59;431167;1271;142622;-62
2022/01/13 09:12:39;;;;;;;26.30;15.70;;;;;;;-0.06;90.22;100794.17;432398;1272;142995;-60
2022/01/13 09:22:47;;;;;;;27.90;16.30;;;;;;;0.10;90.12;100784.67;432866;1273;143237;-67
2022/01/13 09:32:53;;;;;;;29.70;19.00;;;;;;;0.11;89.92;100776.25;432276;1271;142295;-71
2022/01/13 09:42:59;;;;;;;25.80;15.60;;;;;;;0.10;90.40;100771.08;431953;1271;144278;-64
2022/01/13 09:53:07;;;;;;;29.60;17.40;;;;;;;0.12;90.31;100761.27;432579;1271;142605;-64
2022/01/13 10:03:14;;;;;;;28.80;19.30;;;;;;;0.16;90.45;100745.74;430580;1271;141295;-67
2022/01/13 10:13:39;;;;;;;31.30;19.00;;;;;;;0.28;90.58;100729.35;433249;1271;142508;-60
2022/01/13 10:24:09;;;;;;;28.10;17.20;;;;;;;0.37;90.30;100712.96;431248;1271;141618;-67
2022/01/13 10:34:26;;;;;;;34.70;19.90;;;;;;;0.42;90.43;100699.67;431407;1271;142114;-60
2022/01/13 10:44:32;;;;;;;27.20;19.60;;;;;;;0.46;90.60;100690.88;431866;1271;142206;-68
2022/01/13 10:54:38;;;;;;;30.00;19.40;;;;;;;0.56;90.63;100672.73;431026;1271;142467;-77
2022/01/13 11:04:44;;;;;;;31.10;16.80;;;;;;;0.53;90.55;100657.93;431604;1273;142067;-62
2022/01/13 11:14:55;;;;;;;28.00;18.90;;;;;;;0.66;90.64;100633.73;430347;1272;146433;-61
2022/01/13 11:25:02;;;;;;;29.00;17.50;;;;;;;0.73;90.75;100634.55;431043;1271;144265;-63
2022/01/13 11:35:11;;;;;;;38.30;21.70;;;;;;;0.78;90.88;100647.79;431746;1271;142235;-59
2022/01/13 11:45:20;;;;;;;34.30;21.80;;;;;;;0.73;90.81;100623.52;430258;1271;219567;-53
2022/01/13 11:55:29;;;;;;;28.80;19.30;;;;;;;0.77;90.83;100610.56;430350;1271;142284;-60
2022/01/13 12:05:56;;;;;;;33.60;20.40;;;;;;;0.78;90.84;100612.80;434523;1271;142192;-63
2022/01/13 12:16:03;;;;;;;30.10;20.00;;;;;;;0.79;90.89;100604.52;433626;1270;141399;-63
2022/01/13 12:26:50;;;;;;;30.10;21.20;;;;;;;0.81;91.00;100589.84;434403;1271;142227;-66
2022/01/13 12:36:56;;;;;;;35.70;18.60;;;;;;;0.87;90.93;100582.23;430810;1271;144292;-61
2022/01/13 12:47:03;;;;;;;27.90;18.80;;;;;;;0.92;90.88;100579.59;437159;1272;140999;-64
2022/01/13 12:57:27;;;;;;;31.70;18.40;;;;;;;0.98;90.89;100583.85;430823;1271;142041;-65
2022/01/13 13:07:33;;;;;;;27.50;17.50;;;;;;;1.00;90.78;100573.48;430481;1271;141853;-68
2022/01/13 13:17:41;;;;;;;27.40;16.70;;;;;;;1.02;90.61;100568.13;431218;1271;142155;-63
2022/01/13 13:27:47;;;;;;;26.10;16.50;;;;;;;1.03;90.76;100567.59;433100;1271;144949;-66
2022/01/13 13:37:55;;;;;;;25.00;15.70;;;;;;;1.01;90.74;100571.08;432911;1270;142703;-64
2022/01/13 13:48:01;;;;;;;27.30;18.00;;;;;;;1.02;90.84;100566.05;431310;1271;141955;-64
2022/01/13 13:58:09;;;;;;;28.90;17.50;;;;;;;1.02;90.72;100571.58;431642;1271;143125;-72
2022/01/13 14:08:15;;;;;;;24.50;16.10;;;;;;;0.98;90.87;100582.46;434868;1271;142665;-64
2022/01/13 14:18:21;;;;;;;23.20;15.30;;;;;;;1.00;90.85;100577.45;431791;1271;143147;-66
2022/01/13 14:28:30;;;;;;;21.30;14.20;;;;;;;0.99;91.05;100565.56;430626;1273;142429;-64
2022/01/13 14:38:46;;;;;;;22.20;14.60;;;;;;;1.00;90.99;100569.69;436004;1271;141910;-65
2022/01/13 14:48:52;;;;;;;18.30;14.40;;;;;;;1.03;91.28;100561.90;429623;1271;141375;-64
2022/01/13 14:58:58;;;;;;;21.90;14.90;;;;;;;1.06;91.15;100552.39;431348;1271;142039;-62
2022/01/13 15:09:05;;;;;;;20.00;14.60;;;;;;;1.07;91.13;100544.98;430893;1271;141783;-68
2022/01/13 15:19:14;;;;;;;22.70;13.80;;;;;;;1.07;91.28;100541.70;430462;1271;141079;-65
2022/01/13 15:29:20;;;;;;;21.60;14.40;;;;;;;1.08;91.39;100541.17;431704;1273;141768;-62
2022/01/13 15:39:27;;;;;;;21.90;15.60;;;;;;;1.10;91.44;100542.86;430475;1271;144360;-65
2022/01/13 15:49:33;;;;;;;23.70;16.50;;;;;;;1.13;91.42;100555.09;432577;1271;142349;-67
2022/01/13 15:59:41;;;;;;;20.50;15.50;;;;;;;1.14;91.48;100555.59;434316;1270;142818;-70
2022/01/13 16:09:47;;;;;;;19.50;15.60;;;;;;;1.16;91.67;100547.46;431608;1271;141675;-69
2022/01/13 16:19:53;;;;;;;20.40;15.40;;;;;;;1.15;91.58;100557.83;430446;1271;142310;-69
2022/01/13 16:30:03;;;;;;;22.40;14.10;;;;;;;1.10;91.75;100557.19;431393;1271;141655;-66
2022/01/13 16:40:13;;;;;;;19.60;15.20;;;;;;;1.13;91.98;100560.61;430699;1271;141649;-67
2022/01/13 16:50:21;;;;;;;21.60;16.00;;;;;;;1.17;91.98;100543.33;433690;1271;142775;-69
2022/01/13 17:00:27;;;;;;;20.00;15.00;;;;;;;1.22;92.03;100544.47;432236;1271;141218;-66
2022/01/13 17:10:33;;;;;;;16.50;11.20;;;;;;;1.24;91.92;100545.50;431673;1271;140624;-66
2022/01/13 17:20:41;;;;;;;20.80;15.20;;;;;;;1.28;91.99;100533.90;431460;1271;142337;-64
2022/01/13 17:30:48;;;;;;;18.10;14.20;;;;;;;1.31;92.09;100529.90;431790;1271;142672;-66
2022/01/13 17:40:54;;;;;;;20.70;16.10;;;;;;;1.30;92.11;100505.77;433346;1271;142203;-66
2022/01/13 17:51:00;;;;;;;18.20;14.40;;;;;;;1.33;92.11;100515.39;433884;1270;140688;-67
2022/01/13 18:01:07;;;;;;;21.80;15.70;;;;;;;1.37;92.24;100512.94;431203;1271;141728;-66
2022/01/13 18:11:13;;;;;;;27.80;17.10;;;;;;;1.38;92.38;100520.84;431603;1270;141937;-66
2022/01/13 18:21:19;;;;;;;22.30;15.70;;;;;;;1.40;92.24;100522.39;430115;1271;141338;-67
2022/01/13 18:31:25;;;;;;;23.70;15.60;;;;;;;1.41;92.16;100510.30;431312;1271;141501;-66
2022/01/13 18:41:31;;;;;;;20.80;15.80;;;;;;;1.38;92.20;100510.84;430752;1273;142105;-71
2022/01/13 18:51:37;;;;;;;18.40;13.90;;;;;;;1.41;92.38;100501.16;431991;1271;142307;-67
2022/01/13 19:01:43;;;;;;;20.80;13.90;;;;;;;1.44;92.33;100481.79;431474;1271;141685;-68
2022/01/13 19:11:50;;;;;;;21.10;15.10;;;;;;;1.46;92.30;100470.39;434579;1271;141237;-67
2022/01/13 19:21:56;;;;;;;22.10;14.00;;;;;;;1.49;92.29;100472.06;431069;1270;141603;-68
2022/01/13 19:32:01;;;;;;;20.90;14.00;;;;;;;1.50;92.40;100463.59;431955;1271;140929;-69
2022/01/13 19:42:08;;;;;;;19.50;14.70;;;;;;;1.49;92.45;100460.67;433457;1270;143292;-67
2022/01/13 19:52:14;;;;;;;22.80;15.40;;;;;;;1.46;92.39;100454.67;430567;1271;141516;-67
2022/01/13 20:02:21;;;;;;;19.10;14.40;;;;;;;1.49;92.54;100453.42;431515;1271;141756;-68
2022/01/13 20:12:30;;;;;;;23.20;15.60;;;;;;;1.49;92.54;100443.23;432419;1271;142437;-66
2022/01/13 20:22:36;;;;;;;23.70;16.70;;;;;;;1.52;92.65;100425.79;433630;1271;141478;-67
2022/01/13 20:32:42;;;;;;;24.70;17.20;;;;;;;1.57;92.74;100424.17;432368;1271;141717;-66
2022/01/13 20:43:06;;;;;;;20.20;14.50;;;;;;;1.61;92.86;100414.45;434483;1271;141565;-66
2022/01/13 20:53:12;;;;;;;24.30;17.00;;;;;;;1.66;92.89;100403.67;430959;1271;142333;-66
2022/01/13 21:03:19;;;;;;;23.90;15.20;;;;;;;1.67;92.84;100392.80;432040;1272;142212;-67
2022/01/13 21:13:25;;;;;;;21.50;15.60;;;;;;;1.67;92.89;100375.70;430447;1271;141415;-67
2022/01/13 21:23:31;;;;;;;22.60;16.70;;;;;;;1.68;92.89;100381.04;431341;1271;141599;-67
2022/01/13 21:33:39;;;;;;;21.00;15.40;;;;;;;1.71;92.97;100366.66;429919;1271;142094;-69
2022/01/13 21:43:54;;;;;;;27.50;16.80;;;;;;;1.73;92.93;100368.02;430554;1271;142275;-68
2022/01/13 21:54:00;;;;;;;22.70;15.30;;;;;;;1.72;93.11;100363.73;430335;1271;141351;-67
2022/01/13 22:04:06;;;;;;;26.50;18.50;;;;;;;1.72;93.07;100351.81;432475;1271;142521;-69
2022/01/13 22:14:13;;;;;;;23.50;16.50;;;;;;;1.75;93.16;100340.55;431088;1271;141989;-67
2022/01/13 22:24:19;;;;;;;27.60;16.50;;;;;;;1.77;93.39;100347.41;429253;1271;162047;-67
2022/01/13 22:34:24;;;;;;;22.80;15.90;;;;;;;1.79;93.17;100327.19;431829;1271;141696;-70
2022/01/13 22:44:33;;;;;;;25.50;17.20;;;;;;;1.81;93.21;100339.93;432834;1272;141420;-67
2022/01/13 22:54:42;;;;;;;31.90;19.20;;;;;;;1.85;93.07;100335.55;432209;1271;142750;-71
2022/01/13 23:04:48;;;;;;;31.00;19.10;;;;;;;1.87;93.03;100330.33;439262;1271;142716;-57
2022/01/13 23:25:20;;;;;;;29.00;18.50;;;;;;;1.94;93.13;100323.65;430656;1271;141730;-55
2022/01/13 23:35:27;;;;;;;28.60;18.20;;;;;;;1.91;93.05;100301.25;431720;1271;141886;-58
2022/01/13 23:55:53;;;;;;;29.00;18.20;;;;;;;1.93;93.11;100285.86;429893;1270;143620;-57
